Main page
METAR-TAF:

METAR-TAF

Airports :

Cleburne Regional Airport

Cleburne, Texas, United States

latitude: 32-21-13N, longitude: 097-26-01W, elevation: 853 ft

Current weather observation

The report was made 32 minutes ago, at 17:15 UTC
Wind 14 mph from the East
Temperature 86°F
Humidity 66%
Pressure 30.19 in. Hg
Visibility: 10 miles
Scattered clouds at a height of 2700 ft
Broken clouds at a height of 3200 ft
Broken clouds at a height of 4200 ft

METAR: KCPT 201715Z AUTO 08012KT 10SM SCT027 BKN032 BKN042 30/23 A3019 RMK A01

Time: 12:47 (17:47 UTC)


TAF: missing

Weather observations and forecasts of more than 4000 airports (METAR and TAF reports).

The available stations are represented by yellow and red dots on the map.

Hover mouse over dot to see the name of the station.

Then click to see weather observations and forecasts.

To change the map : click on the green buttons with a black cross to zoom in, on the green button with a dash to zoom out, or on the green arrows for adjacent maps.


METAR-TAF: